Cookies

¿Aceptas nuestras cookies?

Aceptar
VAM | Vabird-VBD

Virtual Vabird! Aerolínea Virtual de habla hispana, desde 2011




 INFORMACIÓN METAR y TAF
METAR FOR GMME
ADDS - METARS form results

(1224 UTC 03 December 2021)
Data provider http://aviationweather.gov/metar/data/
 
METAR text: GMME 031200Z 04005KT 360V110 7000 SCT016 16/08 Q1025 NOSIG
Conditions at: GMME (RABAT/SALE (RMAF, MA) observed 1200 UTC 03 December 2021
Temperature: 16.0°C (61°F)
Dewpoint: 8.0°C (46°F) [RH = 59%]
Pressure (altimeter): 30.27 inches Hg (1025.0 mb)
Winds: from the NE (40 degrees) at 6 MPH (5 knots; 2.6 m/s)
Visibility: 4 miles ( 7 km)
Ceiling: at least 12,000 feet AGL
Clouds: scattered clouds at 1600 feet AGL
Weather: no significant weather observed at this time

METAR text: GMME 031130Z 12003KT 7000 SCT016 17/07 Q1025 NOSIG
Conditions at: GMME (RABAT/SALE (RMAF, MA) observed 1130 UTC 03 December 2021
Temperature: 17.0°C (63°F)
Dewpoint: 7.0°C (45°F) [RH = 52%]
Pressure (altimeter): 30.27 inches Hg (1025.0 mb)
Winds: from the ESE (120 degrees) at 3 MPH (3 knots; 1.5 m/s)
Visibility: 4 miles ( 7 km)
Ceiling: at least 12,000 feet AGL
Clouds: scattered clouds at 1600 feet AGL
Weather: no significant weather observed at this time

Forecast for: GMME (RABAT/SALE (RMAF, MA)
Text: TAF GMME 031100Z 0312/0418 16006KT 7000 SCT016
Forecast period: 1200 UTC 03 December 2021 to 1800 UTC 04 December 2021
Forecast type: FROM: standard forecast or significant change
Winds: from the SSE (160 degrees) at 7 MPH (6 knots; 3.1 m/s)
Visibility: 4 miles (7 km)
Ceiling: at least 12,000 feet AGL
Clouds: scattered clouds at 1600 feet AGL
Weather: no significant weather forecast for this period
Text: TEMPO 0312/0318 04010KT
Forecast period: 1200 to 1800 UTC 03 December 2021
Forecast type: TEMPORARY: The following changes expected for less than half the time period
Winds: from the NE (40 degrees) at 12 MPH (10 knots; 5.1 m/s)
Visibility: missing
Ceiling: unknown
Clouds: missing
Weather: no significant weather forecast for this period
Text: TEMPO 0318/0402 VRB02KT 6000 NSC
Forecast period: 1800 UTC 03 December 2021 to 0200 UTC 04 December 2021
Forecast type: TEMPORARY: The following changes expected for less than half the time period
Winds: variable direction winds at 2 MPH (2 knots; 1.0 m/s)
Visibility: 4 miles (6 km)
Ceiling: unknown
Clouds: missing
Weather: no significant weather forecast for this period

 MAPA DE AEROPUERTO

 INFORMACIÓN DE PISTA